sensor_id;sensor_type;location;lat;lon;timestamp;pressure;altitude;pressure_sealevel;temperature;humidity
48527;BME280;34317;51.660;5.824;2023-07-24T00:00:31;100404.88;;;22.10;54.64
48527;BME280;34317;51.660;5.824;2023-07-24T00:02:58;100395.78;;;22.11;54.67
48527;BME280;34317;51.660;5.824;2023-07-24T00:05:25;100395.78;;;22.11;54.63
48527;BME280;34317;51.660;5.824;2023-07-24T00:07:52;100398.31;;;22.12;54.64
48527;BME280;34317;51.660;5.824;2023-07-24T00:10:19;100392.78;;;22.14;54.68
48527;BME280;34317;51.660;5.824;2023-07-24T00:12:46;100388.09;;;22.16;54.72
48527;BME280;34317;51.660;5.824;2023-07-24T00:15:13;100388.91;;;22.16;54.60
48527;BME280;34317;51.660;5.824;2023-07-24T00:17:40;100395.19;;;22.17;54.72
48527;BME280;34317;51.660;5.824;2023-07-24T00:20:07;100396.84;;;22.18;54.67
48527;BME280;34317;51.660;5.824;2023-07-24T00:22:34;100384.41;;;22.17;54.72
48527;BME280;34317;51.660;5.824;2023-07-24T00:25:01;100389.78;;;22.17;54.67
48527;BME280;34317;51.660;5.824;2023-07-24T00:27:28;100375.28;;;22.18;54.64
48527;BME280;34317;51.660;5.824;2023-07-24T00:29:55;100377.28;;;22.16;54.65
48527;BME280;34317;51.660;5.824;2023-07-24T00:32:22;100375.59;;;22.15;54.55
48527;BME280;34317;51.660;5.824;2023-07-24T00:34:49;100370.19;;;22.15;54.72
48527;BME280;34317;51.660;5.824;2023-07-24T00:37:16;100364.78;;;22.15;54.69
48527;BME280;34317;51.660;5.824;2023-07-24T00:39:43;100364.78;;;22.15;54.78
48527;BME280;34317;51.660;5.824;2023-07-24T00:42:10;100361.09;;;22.16;54.81
48527;BME280;34317;51.660;5.824;2023-07-24T00:44:37;100361.09;;;22.16;54.83
48527;BME280;34317;51.660;5.824;2023-07-24T00:47:04;100366.50;;;22.16;54.71
48527;BME280;34317;51.660;5.824;2023-07-24T00:49:31;100357.72;;;22.14;54.79
48527;BME280;34317;51.660;5.824;2023-07-24T00:51:59;100361.41;;;22.13;54.80
48527;BME280;34317;51.660;5.824;2023-07-24T00:54:26;100354.34;;;22.12;54.81
48527;BME280;34317;51.660;5.824;2023-07-24T00:56:57;100347.22;;;22.11;54.89
48527;BME280;34317;51.660;5.824;2023-07-24T00:59:24;100343.53;;;22.12;54.80
48527;BME280;34317;51.660;5.824;2023-07-24T01:01:51;100336.44;;;22.11;54.79
48527;BME280;34317;51.660;5.824;2023-07-24T01:04:18;100334.75;;;22.10;54.84
48527;BME280;34317;51.660;5.824;2023-07-24T01:06:46;100334.75;;;22.10;54.79
48527;BME280;34317;51.660;5.824;2023-07-24T01:09:13;100334.75;;;22.10;54.81
48527;BME280;34317;51.660;5.824;2023-07-24T01:12:00;100333.06;;;22.09;54.96
48527;BME280;34317;51.660;5.824;2023-07-24T01:14:34;100327.66;;;22.09;54.88
48527;BME280;34317;51.660;5.824;2023-07-24T01:17:03;100329.69;;;22.07;54.82
48527;BME280;34317;51.660;5.824;2023-07-24T01:19:37;100322.59;;;22.06;54.83
48527;BME280;34317;51.660;5.824;2023-07-24T01:27:31;100311.28;;;22.02;54.92
48527;BME280;34317;51.660;5.824;2023-07-24T01:29:58;100317.50;;;22.03;55.02
48527;BME280;34317;51.660;5.824;2023-07-24T01:32:25;100317.50;;;22.03;55.04
48527;BME280;34317;51.660;5.824;2023-07-24T01:34:52;100307.41;;;22.05;55.03
48527;BME280;34317;51.660;5.824;2023-07-24T01:37:20;100297.63;;;22.04;55.07
48527;BME280;34317;51.660;5.824;2023-07-24T01:39:48;100299.31;;;22.05;55.06
48527;BME280;34317;51.660;5.824;2023-07-24T01:42:15;100295.63;;;22.06;55.03
48527;BME280;34317;51.660;5.824;2023-07-24T01:44:42;100277.75;;;22.05;55.10
48527;BME280;34317;51.660;5.824;2023-07-24T01:47:10;100293.94;;;22.05;55.07
48527;BME280;34317;51.660;5.824;2023-07-24T01:49:37;100290.38;;;22.04;55.07
48527;BME280;34317;51.660;5.824;2023-07-24T01:52:06;100277.75;;;22.05;55.12
48527;BME280;34317;51.660;5.824;2023-07-24T01:54:33;100275.88;;;22.05;55.11
48527;BME280;34317;51.660;5.824;2023-07-24T01:57:00;100278.59;;;22.05;55.19
48527;BME280;34317;51.660;5.824;2023-07-24T01:59:27;100280.44;;;22.05;55.07
48527;BME280;34317;51.660;5.824;2023-07-24T02:01:54;100275.03;;;22.05;55.14
48527;BME280;34317;51.660;5.824;2023-07-24T02:04:21;100274.06;;;22.06;55.13
48527;BME280;34317;51.660;5.824;2023-07-24T02:06:49;100268.66;;;22.06;55.21
48527;BME280;34317;51.660;5.824;2023-07-24T02:09:19;100273.19;;;22.05;55.22
48527;BME280;34317;51.660;5.824;2023-07-24T02:11:46;100263.28;;;22.06;55.24
48527;BME280;34317;51.660;5.824;2023-07-24T02:14:14;100263.28;;;22.06;55.19
48527;BME280;34317;51.660;5.824;2023-07-24T02:16:43;100271.38;;;22.06;55.37
48527;BME280;34317;51.660;5.824;2023-07-24T02:19:10;100269.66;;;22.05;55.44
48527;BME280;34317;51.660;5.824;2023-07-24T02:21:37;100260.72;;;22.04;55.24
48527;BME280;34317;51.660;5.824;2023-07-24T02:24:04;100255.34;;;22.04;55.25
48527;BME280;34317;51.660;5.824;2023-07-24T02:26:31;100263.56;;;22.03;55.43
48527;BME280;34317;51.660;5.824;2023-07-24T02:28:58;100249.06;;;22.04;55.32
48527;BME280;34317;51.660;5.824;2023-07-24T02:31:25;100240.00;;;22.05;55.37
48527;BME280;34317;51.660;5.824;2023-07-24T02:33:52;100241.69;;;22.06;55.39
48527;BME280;34317;51.660;5.824;2023-07-24T02:36:21;100240.00;;;22.05;55.31
48527;BME280;34317;51.660;5.824;2023-07-24T02:38:47;100232.88;;;22.04;55.33
48527;BME280;34317;51.660;5.824;2023-07-24T02:41:15;100236.59;;;22.03;55.43
48527;BME280;34317;51.660;5.824;2023-07-24T02:43:42;100238.28;;;22.04;55.52
48527;BME280;34317;51.660;5.824;2023-07-24T02:46:10;100237.44;;;22.03;55.46
48527;BME280;34317;51.660;5.824;2023-07-24T02:48:37;100247.09;;;22.06;55.46
48527;BME280;34317;51.660;5.824;2023-07-24T02:51:05;100248.91;;;22.05;55.48
48527;BME280;34317;51.660;5.824;2023-07-24T02:53:31;100250.78;;;22.05;55.48
48527;BME280;34317;51.660;5.824;2023-07-24T02:56:00;100254.47;;;22.04;55.53
48527;BME280;34317;51.660;5.824;2023-07-24T02:58:27;100245.38;;;22.05;55.44
48527;BME280;34317;51.660;5.824;2023-07-24T03:01:01;100247.09;;;22.06;55.62
48527;BME280;34317;51.660;5.824;2023-07-24T03:03:28;100245.06;;;22.08;55.64
48527;BME280;34317;51.660;5.824;2023-07-24T03:05:55;100241.34;;;22.09;55.49
48527;BME280;34317;51.660;5.824;2023-07-24T03:08:22;100233.94;;;22.11;55.46
48527;BME280;34317;51.660;5.824;2023-07-24T03:10:49;100235.66;;;22.12;55.62
48527;BME280;34317;51.660;5.824;2023-07-24T03:13:17;100224.88;;;22.12;55.52
48527;BME280;34317;51.660;5.824;2023-07-24T03:15:51;100239.03;;;22.14;55.55
48527;BME280;34317;51.660;5.824;2023-07-24T03:18:18;100245.44;;;22.13;55.56
48527;BME280;34317;51.660;5.824;2023-07-24T03:20:46;100250.81;;;22.13;55.47
48527;BME280;34317;51.660;5.824;2023-07-24T03:23:13;100246.75;;;22.09;55.42
48527;BME280;34317;51.660;5.824;2023-07-24T03:25:40;100242.53;;;22.06;55.61
48527;BME280;34317;51.660;5.824;2023-07-24T03:28:07;100233.91;;;22.03;55.59
48527;BME280;34317;51.660;5.824;2023-07-24T03:30:34;100233.22;;;22.01;55.62
48527;BME280;34317;51.660;5.824;2023-07-24T03:33:02;100228.13;;;21.97;55.54
48527;BME280;34317;51.660;5.824;2023-07-24T03:35:30;100235.53;;;21.95;55.62
48527;BME280;34317;51.660;5.824;2023-07-24T03:37:59;100217.69;;;21.94;55.72
48527;BME280;34317;51.660;5.824;2023-07-24T03:40:26;100198.09;;;21.92;55.61
48527;BME280;34317;51.660;5.824;2023-07-24T03:42:53;100201.81;;;21.91;55.58
48527;BME280;34317;51.660;5.824;2023-07-24T03:45:22;100212.59;;;21.91;55.71
48527;BME280;34317;51.660;5.824;2023-07-24T03:47:49;100218.00;;;21.91;55.72
48527;BME280;34317;51.660;5.824;2023-07-24T03:50:16;100216.28;;;21.90;55.77
48527;BME280;34317;51.660;5.824;2023-07-24T03:52:43;100215.44;;;21.90;55.79
48527;BME280;34317;51.660;5.824;2023-07-24T03:55:10;100214.63;;;21.89;55.72
48527;BME280;34317;51.660;5.824;2023-07-24T03:57:38;100206.53;;;21.89;55.72
48527;BME280;34317;51.660;5.824;2023-07-24T04:00:05;100199.56;;;21.87;55.77
48527;BME280;34317;51.660;5.824;2023-07-24T04:02:37;100211.53;;;21.84;55.77
48527;BME280;34317;51.660;5.824;2023-07-24T04:05:07;100212.56;;;21.83;55.70
48527;BME280;34317;51.660;5.824;2023-07-24T04:07:34;100217.22;;;21.81;55.85
48527;BME280;34317;51.660;5.824;2023-07-24T04:10:01;100218.94;;;21.82;55.75
48527;BME280;34317;51.660;5.824;2023-07-24T04:12:28;100218.94;;;21.82;55.60
48527;BME280;34317;51.660;5.824;2023-07-24T04:14:55;100208.78;;;21.76;55.71
48527;BME280;34317;51.660;5.824;2023-07-24T04:17:22;100209.41;;;21.70;55.63
48527;BME280;34317;51.660;5.824;2023-07-24T04:19:51;100222.53;;;21.65;55.64
48527;BME280;34317;51.660;5.824;2023-07-24T04:22:18;100223.13;;;21.58;55.58
48527;BME280;34317;51.660;5.824;2023-07-24T04:24:47;100229.16;;;21.52;55.65
48527;BME280;34317;51.660;5.824;2023-07-24T04:27:14;100231.44;;;21.47;55.71
48527;BME280;34317;51.660;5.824;2023-07-24T04:29:41;100228.38;;;21.42;55.80
48527;BME280;34317;51.660;5.824;2023-07-24T04:32:08;100233.06;;;21.40;55.90
48527;BME280;34317;51.660;5.824;2023-07-24T04:34:35;100240.44;;;21.38;55.84
48527;BME280;34317;51.660;5.824;2023-07-24T04:37:03;100250.50;;;21.36;55.84
48527;BME280;34317;51.660;5.824;2023-07-24T04:39:31;100250.84;;;21.33;55.87
48527;BME280;34317;51.660;5.824;2023-07-24T04:41:59;100245.75;;;21.30;55.91
48527;BME280;34317;51.660;5.824;2023-07-24T04:44:26;100236.28;;;21.26;55.96
48527;BME280;34317;51.660;5.824;2023-07-24T04:46:53;100235.59;;;21.24;55.92
48527;BME280;34317;51.660;5.824;2023-07-24T04:49:22;100226.81;;;21.22;56.00
48527;BME280;34317;51.660;5.824;2023-07-24T04:51:50;100228.81;;;21.19;56.03
48527;BME280;34317;51.660;5.824;2023-07-24T04:54:17;100225.44;;;21.17;56.01
48527;BME280;34317;51.660;5.824;2023-07-24T04:56:44;100230.13;;;21.15;55.97
48527;BME280;34317;51.660;5.824;2023-07-24T04:59:11;100234.78;;;21.13;56.06
48527;BME280;34317;51.660;5.824;2023-07-24T05:01:39;100240.50;;;21.10;56.00
48527;BME280;34317;51.660;5.824;2023-07-24T05:04:06;100242.50;;;21.08;56.02
48527;BME280;34317;51.660;5.824;2023-07-24T05:06:33;100235.75;;;21.04;56.11
48527;BME280;34317;51.660;5.824;2023-07-24T05:09:02;100242.09;;;21.03;56.13
48527;BME280;34317;51.660;5.824;2023-07-24T05:11:29;100228.94;;;21.00;55.96
48527;BME280;34317;51.660;5.824;2023-07-24T05:13:56;100234.31;;;21.00;56.15
48527;BME280;34317;51.660;5.824;2023-07-24T05:16:23;100225.56;;;20.98;56.24
48527;BME280;34317;51.660;5.824;2023-07-24T05:18:50;100229.25;;;20.97;56.17
48527;BME280;34317;51.660;5.824;2023-07-24T05:21:17;100232.78;;;20.97;56.23
48527;BME280;34317;51.660;5.824;2023-07-24T05:23:44;100234.66;;;20.97;56.16
48527;BME280;34317;51.660;5.824;2023-07-24T05:26:11;100250.78;;;20.97;56.25
48527;BME280;34317;51.660;5.824;2023-07-24T05:28:38;100248.25;;;20.95;56.30
48527;BME280;34317;51.660;5.824;2023-07-24T05:31:05;100249.09;;;20.96;56.18
48527;BME280;34317;51.660;5.824;2023-07-24T05:33:32;100254.47;;;20.96;56.30
48527;BME280;34317;51.660;5.824;2023-07-24T05:35:59;100254.47;;;20.96;56.31
48527;BME280;34317;51.660;5.824;2023-07-24T05:38:27;100261.56;;;20.97;56.25
48527;BME280;34317;51.660;5.824;2023-07-24T05:40:54;100260.56;;;20.98;56.36
48527;BME280;34317;51.660;5.824;2023-07-24T05:43:22;100253.50;;;20.97;56.36
48527;BME280;34317;51.660;5.824;2023-07-24T05:45:50;100264.94;;;20.99;56.41
48527;BME280;34317;51.660;5.824;2023-07-24T05:48:17;100266.63;;;21.00;56.38
48527;BME280;34317;51.660;5.824;2023-07-24T05:50:44;100260.41;;;20.99;56.34
48527;BME280;34317;51.660;5.824;2023-07-24T05:53:11;100262.97;;;21.01;56.33
48527;BME280;34317;51.660;5.824;2023-07-24T05:55:38;100261.97;;;21.02;56.47
48527;BME280;34317;51.660;5.824;2023-07-24T05:58:05;100262.66;;;21.04;56.47
48527;BME280;34317;51.660;5.824;2023-07-24T06:00:33;100259.66;;;21.07;56.45
48527;BME280;34317;51.660;5.824;2023-07-24T06:03:00;100264.06;;;21.08;56.48
48527;BME280;34317;51.660;5.824;2023-07-24T06:05:27;100260.34;;;21.09;56.36
48527;BME280;34317;51.660;5.824;2023-07-24T06:07:54;100264.75;;;21.10;56.39
48527;BME280;34317;51.660;5.824;2023-07-24T06:10:21;100267.13;;;21.13;56.51
48527;BME280;34317;51.660;5.824;2023-07-24T06:12:48;100263.44;;;21.14;56.44
48527;BME280;34317;51.660;5.824;2023-07-24T06:15:15;100265.97;;;21.16;56.45
48527;BME280;34317;51.660;5.824;2023-07-24T06:17:42;100270.22;;;21.18;56.40
48527;BME280;34317;51.660;5.824;2023-07-24T06:20:09;100266.53;;;21.19;56.39
48527;BME280;34317;51.660;5.824;2023-07-24T06:22:36;100268.19;;;21.20;56.46
48527;BME280;34317;51.660;5.824;2023-07-24T06:25:03;100268.75;;;21.24;56.55
48527;BME280;34317;51.660;5.824;2023-07-24T06:27:30;100267.91;;;21.24;56.42
48527;BME280;34317;51.660;5.824;2023-07-24T06:29:57;100275.69;;;21.27;56.42
48527;BME280;34317;51.660;5.824;2023-07-24T06:32:39;100269.28;;;21.28;56.49
48527;BME280;34317;51.660;5.824;2023-07-24T06:35:06;100267.28;;;21.30;56.59
48527;BME280;34317;51.660;5.824;2023-07-24T06:37:33;100268.69;;;21.34;56.60
48527;BME280;34317;51.660;5.824;2023-07-24T06:40:00;100273.75;;;21.37;56.56
48527;BME280;34317;51.660;5.824;2023-07-24T06:42:27;100262.69;;;21.40;56.60
48527;BME280;34317;51.660;5.824;2023-07-24T06:44:55;100265.22;;;21.42;56.63
48527;BME280;34317;51.660;5.824;2023-07-24T06:47:22;100268.47;;;21.45;56.83
48527;BME280;34317;51.660;5.824;2023-07-24T06:49:49;100270.19;;;21.46;56.61
48527;BME280;34317;51.660;5.824;2023-07-24T06:52:16;100273.28;;;21.51;56.69
48527;BME280;34317;51.660;5.824;2023-07-24T06:54:43;100276.66;;;21.53;56.68
48527;BME280;34317;51.660;5.824;2023-07-24T06:57:10;100274.31;;;21.58;56.65
48527;BME280;34317;51.660;5.824;2023-07-24T06:59:40;100268.78;;;21.60;56.66
48527;BME280;34317;51.660;5.824;2023-07-24T07:02:07;100276.09;;;21.68;56.71
48527;BME280;34317;51.660;5.824;2023-07-24T07:04:34;100284.56;;;21.73;56.71
48527;BME280;34317;51.660;5.824;2023-07-24T07:07:01;100279.41;;;21.80;56.78
48527;BME280;34317;51.660;5.824;2023-07-24T07:09:28;100277.94;;;21.85;56.74
48527;BME280;34317;51.660;5.824;2023-07-24T07:11:55;100277.31;;;21.91;56.75
48527;BME280;34317;51.660;5.824;2023-07-24T07:14:22;100278.00;;;21.93;56.61
48527;BME280;34317;51.660;5.824;2023-07-24T07:16:49;100275.84;;;21.97;56.74
48527;BME280;34317;51.660;5.824;2023-07-24T07:19:16;100267.59;;;21.99;56.54
48527;BME280;34317;51.660;5.824;2023-07-24T07:21:43;100271.28;;;21.97;56.49
48527;BME280;34317;51.660;5.824;2023-07-24T07:24:10;100275.00;;;21.96;56.55
48527;BME280;34317;51.660;5.824;2023-07-24T07:26:37;100281.38;;;21.95;56.45
48527;BME280;34317;51.660;5.824;2023-07-24T07:29:04;100280.69;;;21.93;56.47
48527;BME280;34317;51.660;5.824;2023-07-24T07:31:31;100279.00;;;21.92;56.57
48527;BME280;34317;51.660;5.824;2023-07-24T07:33:58;100275.31;;;21.93;56.59
48527;BME280;34317;51.660;5.824;2023-07-24T07:36:25;100278.84;;;21.94;56.69
48527;BME280;34317;51.660;5.824;2023-07-24T07:38:53;100276.00;;;21.95;56.65
48527;BME280;34317;51.660;5.824;2023-07-24T07:41:20;100275.00;;;21.96;56.57
48527;BME280;34317;51.660;5.824;2023-07-24T07:43:47;100284.78;;;21.97;56.77
48527;BME280;34317;51.660;5.824;2023-07-24T07:46:14;100287.16;;;22.01;56.71
48527;BME280;34317;51.660;5.824;2023-07-24T07:48:41;100268.97;;;22.03;56.53
48527;BME280;34317;51.660;5.824;2023-07-24T07:51:08;100265.59;;;22.01;56.55
48527;BME280;34317;51.660;5.824;2023-07-24T07:53:35;100264.75;;;22.00;56.56
48527;BME280;34317;51.660;5.824;2023-07-24T07:56:02;100266.28;;;22.03;56.74
48527;BME280;34317;51.660;5.824;2023-07-24T07:58:29;100263.28;;;22.06;56.68
48527;BME280;34317;51.660;5.824;2023-07-24T08:00:56;100262.94;;;22.09;56.74
48527;BME280;34317;51.660;5.824;2023-07-24T08:03:23;100268.03;;;22.12;56.64
48527;BME280;34317;51.660;5.824;2023-07-24T08:05:51;100268.03;;;22.12;56.54
48527;BME280;34317;51.660;5.824;2023-07-24T08:08:18;100262.63;;;22.12;56.56
48527;BME280;34317;51.660;5.824;2023-07-24T08:10:45;100266.00;;;22.14;56.61
48527;BME280;34317;51.660;5.824;2023-07-24T08:13:12;100260.63;;;22.14;56.54
48527;BME280;34317;51.660;5.824;2023-07-24T08:15:39;100272.09;;;22.16;56.53
48527;BME280;34317;51.660;5.824;2023-07-24T08:18:06;100267.69;;;22.15;56.55
48527;BME280;34317;51.660;5.824;2023-07-24T08:20:37;100258.91;;;22.13;56.43
48527;BME280;34317;51.660;5.824;2023-07-24T08:23:04;100271.09;;;22.17;56.60
48527;BME280;34317;51.660;5.824;2023-07-24T08:25:31;100274.84;;;22.24;56.78
48527;BME280;34317;51.660;5.824;2023-07-24T08:27:58;100276.59;;;22.33;56.99
48527;BME280;34317;51.660;5.824;2023-07-24T08:30:28;100269.25;;;22.44;57.00
48527;BME280;34317;51.660;5.824;2023-07-24T08:32:55;100264.94;;;22.51;56.98
48527;BME280;34317;51.660;5.824;2023-07-24T08:35:23;100273.88;;;22.60;56.86
48527;BME280;34317;51.660;5.824;2023-07-24T08:37:51;100277.13;;;22.63;56.78
48527;BME280;34317;51.660;5.824;2023-07-24T08:40:18;100269.38;;;22.68;56.67
48527;BME280;34317;51.660;5.824;2023-07-24T08:42:45;100273.28;;;22.74;56.88
48527;BME280;34317;51.660;5.824;2023-07-24T08:45:14;100261.97;;;22.79;56.75
48527;BME280;34317;51.660;5.824;2023-07-24T08:47:43;100258.13;;;22.81;56.66
48527;BME280;34317;51.660;5.824;2023-07-24T08:50:13;100259.16;;;22.88;56.67
48527;BME280;34317;51.660;5.824;2023-07-24T08:52:42;100261.91;;;22.97;56.88
48527;BME280;34317;51.660;5.824;2023-07-24T08:55:11;100262.63;;;23.07;56.85
48527;BME280;34317;51.660;5.824;2023-07-24T08:57:39;100267.19;;;23.15;56.81
48527;BME280;34317;51.660;5.824;2023-07-24T09:00:06;100251.66;;;23.17;56.68
48527;BME280;34317;51.660;5.824;2023-07-24T09:02:33;100252.53;;;23.17;56.39
48527;BME280;34317;51.660;5.824;2023-07-24T09:05:02;100248.97;;;23.17;56.46
48527;BME280;34317;51.660;5.824;2023-07-24T09:07:30;100254.72;;;23.22;56.54
48527;BME280;34317;51.660;5.824;2023-07-24T09:09:57;100256.06;;;23.26;56.47
48527;BME280;34317;51.660;5.824;2023-07-24T09:12:24;100246.63;;;23.30;56.64
48527;BME280;34317;51.660;5.824;2023-07-24T09:15:04;100248.00;;;23.34;56.37
48527;BME280;34317;51.660;5.824;2023-07-24T09:17:33;100251.69;;;23.33;56.31
48527;BME280;34317;51.660;5.824;2023-07-24T09:20:01;100244.63;;;23.32;56.30
48527;BME280;34317;51.660;5.824;2023-07-24T09:22:29;100242.09;;;23.30;56.18
48527;BME280;34317;51.660;5.824;2023-07-24T09:24:57;100239.22;;;23.32;56.37
48527;BME280;34317;51.660;5.824;2023-07-24T09:27:25;100230.75;;;23.35;56.27
48527;BME280;34317;51.660;5.824;2023-07-24T09:29:54;100231.09;;;23.40;56.34
48527;BME280;34317;51.660;5.824;2023-07-24T09:32:22;100223.00;;;23.48;56.37
48527;BME280;34317;51.660;5.824;2023-07-24T09:34:50;100218.28;;;23.59;56.56
48527;BME280;34317;51.660;5.824;2023-07-24T09:39:51;100203.44;;;23.79;56.59
48527;BME280;34317;51.660;5.824;2023-07-24T09:42:29;100211.19;;;23.90;56.54
48527;BME280;34317;51.660;5.824;2023-07-24T09:44:57;100198.63;;;24.06;56.59
48527;BME280;34317;51.660;5.824;2023-07-24T09:47:25;100202.31;;;24.21;56.49
48527;BME280;34317;51.660;5.824;2023-07-24T09:50:13;100196.84;;;24.38;56.42
48527;BME280;34317;51.660;5.824;2023-07-24T09:52:40;100175.81;;;24.48;56.25
48527;BME280;34317;51.660;5.824;2023-07-24T09:55:16;100170.38;;;24.56;56.08
48527;BME280;34317;51.660;5.824;2023-07-24T09:57:46;100181.91;;;24.58;55.94
48527;BME280;34317;51.660;5.824;2023-07-24T10:00:13;100165.66;;;24.58;55.93
48527;BME280;34317;51.660;5.824;2023-07-24T10:02:41;100169.38;;;24.57;55.56
48527;BME280;34317;51.660;5.824;2023-07-24T10:05:08;100161.25;;;24.57;55.88
48527;BME280;34317;51.660;5.824;2023-07-24T10:07:35;100160.59;;;24.55;55.73
48527;BME280;34317;51.660;5.824;2023-07-24T10:10:03;100153.81;;;24.51;55.70
48527;BME280;34317;51.660;5.824;2023-07-24T10:12:31;100168.72;;;24.47;55.43
48527;BME280;34317;51.660;5.824;2023-07-24T10:15:00;100167.38;;;24.43;55.44
48527;BME280;34317;51.660;5.824;2023-07-24T10:17:34;100154.22;;;24.40;55.67
48527;BME280;34317;51.660;5.824;2023-07-24T10:20:03;100167.09;;;24.38;55.70
48527;BME280;34317;51.660;5.824;2023-07-24T10:22:30;100182.66;;;24.36;55.73
48527;BME280;34317;51.660;5.824;2023-07-24T10:24:58;100179.94;;;24.36;55.74
48527;BME280;34317;51.660;5.824;2023-07-24T10:27:25;100172.84;;;24.35;55.43
48527;BME280;34317;51.660;5.824;2023-07-24T10:30:02;100178.78;;;24.30;55.46
48527;BME280;34317;51.660;5.824;2023-07-24T10:32:49;100198.59;;;24.22;55.57
48527;BME280;34317;51.660;5.824;2023-07-24T10:35:22;100194.22;;;24.13;55.41
48527;BME280;34317;51.660;5.824;2023-07-24T10:37:58;100198.13;;;24.02;55.45
48527;BME280;34317;51.660;5.824;2023-07-24T10:40:26;100203.75;;;23.93;55.42
48527;BME280;34317;51.660;5.824;2023-07-24T10:43:06;100204.78;;;23.83;55.23
48527;BME280;34317;51.660;5.824;2023-07-24T10:48:09;100205.78;;;23.66;55.46
48527;BME280;34317;51.660;5.824;2023-07-24T10:50:39;100203.72;;;23.60;55.48
48527;BME280;34317;51.660;5.824;2023-07-24T10:53:07;100214.22;;;23.55;55.54
48527;BME280;34317;51.660;5.824;2023-07-24T10:55:34;100211.34;;;23.48;55.58
48527;BME280;34317;51.660;5.824;2023-07-24T10:58:01;100211.66;;;23.45;55.72
48527;BME280;34317;51.660;5.824;2023-07-24T11:00:28;100222.69;;;23.43;55.74
48527;BME280;34317;51.660;5.824;2023-07-24T11:02:56;100223.69;;;23.42;55.73
48527;BME280;34317;51.660;5.824;2023-07-24T11:05:23;100218.28;;;23.42;55.59
48527;BME280;34317;51.660;5.824;2023-07-24T11:07:50;100218.28;;;23.42;55.68
48527;BME280;34317;51.660;5.824;2023-07-24T11:10:19;100219.09;;;23.43;55.56
48527;BME280;34317;51.660;5.824;2023-07-24T11:12:47;100219.63;;;23.46;55.90
48527;BME280;34317;51.660;5.824;2023-07-24T11:15:15;100213.88;;;23.49;55.83
48527;BME280;34317;51.660;5.824;2023-07-24T11:17:42;100213.19;;;23.56;55.82
48527;BME280;34317;51.660;5.824;2023-07-24T11:20:13;100208.81;;;23.63;55.89
48527;BME280;34317;51.660;5.824;2023-07-24T11:22:41;100208.13;;;23.69;55.81
48527;BME280;34317;51.660;5.824;2023-07-24T11:25:11;100207.44;;;23.75;55.83
48527;BME280;34317;51.660;5.824;2023-07-24T11:27:39;100199.38;;;23.83;55.86
48527;BME280;34317;51.660;5.824;2023-07-24T11:30:08;100193.25;;;23.89;55.71
48527;BME280;34317;51.660;5.824;2023-07-24T11:32:37;100185.13;;;23.98;55.79
48527;BME280;34317;51.660;5.824;2023-07-24T11:35:05;100189.84;;;24.04;55.87
48527;BME280;34317;51.660;5.824;2023-07-24T11:37:33;100184.41;;;24.12;55.70
48527;BME280;34317;51.660;5.824;2023-07-24T11:40:02;100188.13;;;24.19;55.60
48527;BME280;34317;51.660;5.824;2023-07-24T11:42:31;100191.16;;;24.24;55.83
48527;BME280;34317;51.660;5.824;2023-07-24T11:45:00;100193.81;;;24.33;55.85
48527;BME280;34317;51.660;5.824;2023-07-24T11:47:27;100189.41;;;24.40;55.56
48527;BME280;34317;51.660;5.824;2023-07-24T11:49:59;100179.56;;;24.47;55.85
48527;BME280;34317;51.660;5.824;2023-07-24T11:52:49;100193.09;;;24.55;55.56
48527;BME280;34317;51.660;5.824;2023-07-24T11:55:16;100192.75;;;24.58;55.71
48527;BME280;34317;51.660;5.824;2023-07-24T11:58:05;100190.31;;;24.63;55.61
48527;BME280;34317;51.660;5.824;2023-07-24T12:00:32;100187.44;;;24.65;55.30
48527;BME280;34317;51.660;5.824;2023-07-24T12:03:03;100183.91;;;24.64;55.42
48527;BME280;34317;51.660;5.824;2023-07-24T12:05:39;100185.41;;;24.67;55.35
48527;BME280;34317;51.660;5.824;2023-07-24T12:08:06;100187.59;;;24.72;55.64
48527;BME280;34317;51.660;5.824;2023-07-24T12:10:35;100185.56;;;24.74;55.28
48527;BME280;34317;51.660;5.824;2023-07-24T12:13:07;100174.34;;;24.77;55.51
48527;BME280;34317;51.660;5.824;2023-07-24T12:15:34;100175.69;;;24.81;55.38
48527;BME280;34317;51.660;5.824;2023-07-24T12:18:02;100159.06;;;24.84;55.43
48527;BME280;34317;51.660;5.824;2023-07-24T12:20:31;100176.66;;;24.88;55.41
48527;BME280;34317;51.660;5.824;2023-07-24T12:22:58;100184.25;;;24.93;55.17
48527;BME280;34317;51.660;5.824;2023-07-24T12:25:25;100168.84;;;24.93;55.09
48527;BME280;34317;51.660;5.824;2023-07-24T12:27:52;100167.63;;;24.96;55.33
48527;BME280;34317;51.660;5.824;2023-07-24T12:30:19;100170.16;;;24.97;55.18
48527;BME280;34317;51.660;5.824;2023-07-24T12:32:46;100173.19;;;25.02;55.17
48527;BME280;34317;51.660;5.824;2023-07-24T12:35:14;100172.81;;;25.05;55.40
48527;BME280;34317;51.660;5.824;2023-07-24T12:37:43;100168.72;;;25.10;55.00
48527;BME280;34317;51.660;5.824;2023-07-24T12:40:10;100164.28;;;25.17;55.12
48527;BME280;34317;51.660;5.824;2023-07-24T12:42:38;100163.88;;;25.28;55.26
48527;BME280;34317;51.660;5.824;2023-07-24T12:45:05;100152.97;;;25.36;55.08
48527;BME280;34317;51.660;5.824;2023-07-24T12:47:33;100155.59;;;25.44;55.18
48527;BME280;34317;51.660;5.824;2023-07-24T12:50:00;100155.88;;;25.50;54.91
48527;BME280;34317;51.660;5.824;2023-07-24T12:52:28;100153.09;;;25.58;55.05
48527;BME280;34317;51.660;5.824;2023-07-24T12:54:56;100153.03;;;25.66;55.28
48527;BME280;34317;51.660;5.824;2023-07-24T12:57:28;100155.28;;;25.77;55.03
48527;BME280;34317;51.660;5.824;2023-07-24T12:59:55;100150.81;;;25.84;55.01
48527;BME280;34317;51.660;5.824;2023-07-24T13:02:22;100155.84;;;25.88;54.94
48527;BME280;34317;51.660;5.824;2023-07-24T13:04:49;100146.69;;;25.89;54.60